Time;durP1;ratioP1;P1;durP2;ratioP2;P2;SDS_P1;SDS_P2;PMS_P1;PMS_P2;Temp;Humidity;BMP_temperature;BMP_pressure;BME280_temperature;BME280_humidity;BME280_pressure;Samples;Min_cycle;Max_cycle;Signal;HPM_P1;HPM_P2
2021/06/28 00:00:44;;;;;;;19.30;17.08;;;;;;;;;;5064056;28;38006;-80
2021/06/28 00:03:18;;;;;;;18.40;16.05;;;;;;;;;;5046406;28;38029;-79
2021/06/28 00:05:46;;;;;;;17.42;15.63;;;;;;;;;;5057739;28;41830;-79
2021/06/28 00:08:15;;;;;;;17.33;15.18;;;;;;;;;;5056198;28;41150;-79
2021/06/28 00:10:45;;;;;;;18.88;16.05;;;;;;;;;;5058195;28;40879;-79
2021/06/28 00:13:19;;;;;;;16.85;15.10;;;;;;;;;;5055591;28;42716;-79
2021/06/28 00:15:45;;;;;;;17.27;15.45;;;;;;;;;;5052220;28;41236;-79
2021/06/28 00:18:13;;;;;;;16.58;14.75;;;;;;;;;;5065898;28;38970;-79
2021/06/28 00:20:39;;;;;;;16.92;14.88;;;;;;;;;;5053148;28;38409;-79
2021/06/28 00:23:06;;;;;;;20.63;16.50;;;;;;;;;;5046430;28;37085;-80
2021/06/28 00:25:36;;;;;;;20.27;16.30;;;;;;;;;;5069329;28;40823;-79
2021/06/28 00:28:08;;;;;;;22.73;18.58;;;;;;;;;;5048703;28;40210;-79
2021/06/28 00:30:36;;;;;;;17.80;14.82;;;;;;;;;;5036421;28;39223;-79
2021/06/28 00:33:04;;;;;;;19.02;17.05;;;;;;;;;;5064438;28;37043;-79
2021/06/28 00:35:31;;;;;;;20.45;18.25;;;;;;;;;;5046569;28;40008;-79
2021/06/28 00:37:57;;;;;;;25.48;20.27;;;;;;;;;;5066329;28;41377;-80
2021/06/28 00:40:30;;;;;;;20.40;18.02;;;;;;;;;;5053547;28;38995;-79
2021/06/28 00:42:58;;;;;;;22.60;19.08;;;;;;;;;;5052510;28;37138;-79
2021/06/28 00:45:39;;;;;;;19.50;17.40;;;;;;;;;;5059686;28;38570;-79
2021/06/28 00:48:12;;;;;;;22.80;19.90;;;;;;;;;;5060278;28;38389;-79
2021/06/28 00:50:43;;;;;;;22.08;18.15;;;;;;;;;;5051751;28;37761;-79
2021/06/28 00:53:23;;;;;;;20.98;18.17;;;;;;;;;;5058109;28;37065;-79
2021/06/28 00:55:50;;;;;;;21.30;19.00;;;;;;;;;;5057299;28;38834;-79
2021/06/28 00:58:22;;;;;;;19.95;17.83;;;;;;;;;;5056770;28;37859;-80
2021/06/28 01:00:48;;;;;;;21.55;19.17;;;;;;;;;;5056810;28;40385;-80
2021/06/28 01:03:15;;;;;;;19.13;17.13;;;;;;;;;;5058111;28;40121;-79
2021/06/28 01:05:42;;;;;;;18.85;16.88;;;;;;;;;;5060312;27;38802;-80
2021/06/28 01:08:08;;;;;;;21.42;17.90;;;;;;;;;;5053488;28;39576;-79
2021/06/28 01:10:37;;;;;;;19.50;17.38;;;;;;;;;;5055541;28;37706;-79
2021/06/28 01:13:04;;;;;;;18.73;16.70;;;;;;;;;;5053015;28;36880;-79
2021/06/28 01:15:31;;;;;;;22.65;18.23;;;;;;;;;;5053838;28;38113;-79
2021/06/28 01:17:58;;;;;;;21.42;17.73;;;;;;;;;;5054305;28;37605;-79
2021/06/28 01:20:28;;;;;;;17.75;15.63;;;;;;;;;;5054051;28;38642;-79
2021/06/28 01:22:58;;;;;;;17.83;15.43;;;;;;;;;;5070923;28;34099;-80
2021/06/28 01:25:28;;;;;;;19.25;16.67;;;;;;;;;;5051161;28;39993;-79
2021/06/28 01:27:54;;;;;;;21.67;17.60;;;;;;;;;;5052872;28;38445;-79
2021/06/28 01:30:23;;;;;;;21.52;16.92;;;;;;;;;;5050767;28;37350;-79
2021/06/28 01:32:50;;;;;;;20.30;17.20;;;;;;;;;;5055101;28;37051;-79
2021/06/28 01:35:17;;;;;;;21.85;17.77;;;;;;;;;;5048852;28;36436;-79
2021/06/28 01:37:46;;;;;;;22.98;17.35;;;;;;;;;;5065122;28;37399;-79
2021/06/28 01:40:13;;;;;;;22.48;18.58;;;;;;;;;;5043229;28;39302;-79
2021/06/28 01:42:40;;;;;;;26.10;20.05;;;;;;;;;;5071575;28;37252;-79
2021/06/28 01:45:11;;;;;;;18.10;16.05;;;;;;;;;;5054594;28;38958;-79
2021/06/28 01:47:38;;;;;;;23.97;19.83;;;;;;;;;;5054954;28;39474;-79
2021/06/28 01:50:05;;;;;;;22.38;17.77;;;;;;;;;;5056703;28;37017;-79
2021/06/28 01:52:32;;;;;;;17.67;15.38;;;;;;;;;;5049813;28;47876;-79
2021/06/28 01:54:58;;;;;;;16.80;14.98;;;;;;;;;;5049455;28;40516;-79
2021/06/28 01:57:25;;;;;;;28.33;20.42;;;;;;;;;;5065123;28;39813;-79
2021/06/28 01:59:51;;;;;;;23.00;19.00;;;;;;;;;;5048652;28;39405;-79
2021/06/28 02:02:17;;;;;;;21.23;18.88;;;;;;;;;;5030826;28;38933;-79
2021/06/28 02:04:47;;;;;;;18.88;15.65;;;;;;;;;;5058267;28;39261;-79
2021/06/28 02:07:13;;;;;;;20.33;17.35;;;;;;;;;;5050123;28;38038;-79
2021/06/28 02:09:40;;;;;;;19.27;16.70;;;;;;;;;;5058011;28;40385;-79
2021/06/28 02:12:09;;;;;;;25.27;18.90;;;;;;;;;;5055088;28;36034;-79
2021/06/28 02:14:36;;;;;;;21.23;17.65;;;;;;;;;;5054975;28;39766;-79
2021/06/28 02:17:02;;;;;;;19.48;15.68;;;;;;;;;;5053313;28;38165;-80
2021/06/28 02:19:31;;;;;;;20.85;17.88;;;;;;;;;;5049982;28;38299;-80
2021/06/28 02:21:58;;;;;;;23.52;19.50;;;;;;;;;;5051942;28;37734;-80
2021/06/28 02:24:25;;;;;;;21.00;17.83;;;;;;;;;;5073680;28;38518;-80
2021/06/28 02:26:51;;;;;;;23.23;19.77;;;;;;;;;;5063328;28;38455;-79
2021/06/28 02:29:18;;;;;;;18.42;16.35;;;;;;;;;;5057593;28;40750;-79
2021/06/28 02:31:44;;;;;;;19.25;17.02;;;;;;;;;;5063504;28;39815;-80
2021/06/28 02:34:11;;;;;;;21.25;17.70;;;;;;;;;;5062414;28;39770;-80
2021/06/28 02:36:37;;;;;;;30.35;22.75;;;;;;;;;;5062417;28;37479;-80
2021/06/28 02:39:05;;;;;;;17.95;14.70;;;;;;;;;;5059409;28;37415;-80
2021/06/28 02:41:34;;;;;;;22.27;18.73;;;;;;;;;;5062328;28;37728;-79
2021/06/28 02:44:01;;;;;;;28.88;22.10;;;;;;;;;;5063364;28;41639;-80
2021/06/28 02:46:27;;;;;;;21.08;17.02;;;;;;;;;;5066088;28;46599;-80
2021/06/28 02:48:56;;;;;;;22.45;19.20;;;;;;;;;;5066509;28;37088;-80
2021/06/28 02:51:23;;;;;;;19.85;16.63;;;;;;;;;;5067036;28;38181;-79
2021/06/28 02:53:53;;;;;;;22.77;19.85;;;;;;;;;;5066003;28;40871;-80
2021/06/28 02:56:20;;;;;;;24.20;20.15;;;;;;;;;;5067116;28;39027;-80
2021/06/28 02:58:52;;;;;;;23.60;19.20;;;;;;;;;;5077601;28;38639;-80
2021/06/28 03:01:23;;;;;;;22.98;18.00;;;;;;;;;;5065496;28;36451;-80
2021/06/28 03:03:49;;;;;;;22.58;19.05;;;;;;;;;;5082019;28;40050;-80
2021/06/28 03:06:16;;;;;;;24.88;19.83;;;;;;;;;;5068592;28;38183;-80
2021/06/28 03:08:43;;;;;;;26.25;22.10;;;;;;;;;;5095044;28;41406;-79
2021/06/28 03:11:14;;;;;;;22.63;19.55;;;;;;;;;;5074850;28;38446;-79
2021/06/28 03:13:40;;;;;;;28.65;23.55;;;;;;;;;;5080614;28;43405;-79
2021/06/28 03:16:07;;;;;;;27.38;22.20;;;;;;;;;;5092267;28;39437;-79
2021/06/28 03:18:37;;;;;;;22.20;18.23;;;;;;;;;;5082272;28;36879;-79
2021/06/28 03:21:04;;;;;;;21.25;18.88;;;;;;;;;;5079305;28;36200;-79
2021/06/28 03:23:31;;;;;;;24.02;21.10;;;;;;;;;;5076853;28;39601;-79
2021/06/28 03:25:57;;;;;;;25.10;18.88;;;;;;;;;;5074818;28;38921;-79
2021/06/28 03:28:26;;;;;;;31.75;23.73;;;;;;;;;;5066419;28;37880;-79
2021/06/28 03:30:52;;;;;;;21.25;17.92;;;;;;;;;;5070714;27;37386;-79
2021/06/28 03:33:18;;;;;;;25.77;21.92;;;;;;;;;;5060412;28;38859;-79
2021/06/28 03:35:45;;;;;;;23.05;20.30;;;;;;;;;;5060765;28;41025;-79
2021/06/28 03:38:11;;;;;;;24.35;20.33;;;;;;;;;;5061382;28;37342;-79
2021/06/28 03:40:38;;;;;;;25.88;21.23;;;;;;;;;;5060033;28;35835;-79
2021/06/28 03:43:06;;;;;;;23.38;18.83;;;;;;;;;;5049634;28;40538;-79
2021/06/28 03:45:32;;;;;;;26.77;21.58;;;;;;;;;;5061385;28;37675;-79
2021/06/28 03:47:59;;;;;;;27.17;21.08;;;;;;;;;;5055604;28;40176;-79
2021/06/28 03:50:25;;;;;;;29.40;24.05;;;;;;;;;;5055353;28;36985;-79
2021/06/28 03:52:52;;;;;;;28.30;22.80;;;;;;;;;;5061196;28;38322;-79
2021/06/28 03:55:19;;;;;;;23.30;20.48;;;;;;;;;;5054685;27;39117;-79
2021/06/28 03:57:45;;;;;;;26.58;21.25;;;;;;;;;;5049547;28;38633;-79
2021/06/28 04:00:13;;;;;;;27.25;21.83;;;;;;;;;;5049548;28;36772;-79
2021/06/28 04:02:42;;;;;;;26.48;22.48;;;;;;;;;;5068726;28;41305;-79
2021/06/28 04:05:09;;;;;;;20.92;18.83;;;;;;;;;;5058913;28;40933;-80
2021/06/28 04:07:36;;;;;;;24.88;20.55;;;;;;;;;;5050755;28;34915;-79
2021/06/28 04:10:04;;;;;;;27.15;21.98;;;;;;;;;;5076700;28;36253;-79
2021/06/28 04:12:30;;;;;;;21.90;19.58;;;;;;;;;;5060538;28;49168;-79
2021/06/28 04:14:57;;;;;;;20.70;18.17;;;;;;;;;;5058365;28;39919;-79
2021/06/28 04:17:23;;;;;;;27.85;20.75;;;;;;;;;;5059491;28;36600;-79
2021/06/28 04:19:49;;;;;;;24.15;21.35;;;;;;;;;;5063538;28;35636;-79
2021/06/28 04:22:16;;;;;;;26.60;21.40;;;;;;;;;;5061144;28;38659;-79
2021/06/28 04:24:42;;;;;;;25.10;21.23;;;;;;;;;;5064206;28;38024;-80
2021/06/28 04:27:09;;;;;;;22.73;19.08;;;;;;;;;;5055862;28;38099;-79
2021/06/28 04:29:41;;;;;;;23.45;20.75;;;;;;;;;;5056319;28;37621;-79
2021/06/28 04:32:08;;;;;;;27.67;22.85;;;;;;;;;;5053308;28;42288;-79
2021/06/28 04:34:42;;;;;;;20.08;17.88;;;;;;;;;;5060515;28;38700;-79
2021/06/28 04:37:11;;;;;;;20.25;17.85;;;;;;;;;;5055491;28;39273;-79
2021/06/28 04:39:38;;;;;;;22.85;20.38;;;;;;;;;;5054420;28;35824;-79
2021/06/28 04:42:05;;;;;;;23.90;21.13;;;;;;;;;;5054986;28;42440;-79
2021/06/28 04:44:31;;;;;;;22.15;19.42;;;;;;;;;;5057208;28;40437;-79
2021/06/28 04:46:57;;;;;;;21.58;17.80;;;;;;;;;;5056380;28;37902;-79
2021/06/28 04:49:24;;;;;;;24.30;18.08;;;;;;;;;;5072637;28;37787;-80
2021/06/28 04:51:54;;;;;;;19.38;17.25;;;;;;;;;;5058374;28;40695;-79
2021/06/28 04:54:23;;;;;;;18.05;16.08;;;;;;;;;;5052598;28;39848;-78
2021/06/28 04:56:49;;;;;;;16.42;14.70;;;;;;;;;;5052896;28;38234;-79
2021/06/28 04:59:17;;;;;;;17.75;15.90;;;;;;;;;;5066280;28;37403;-78
2021/06/28 05:01:44;;;;;;;18.60;16.52;;;;;;;;;;5049980;28;42937;-78
2021/06/28 05:04:10;;;;;;;16.63;14.82;;;;;;;;;;5049013;28;39602;-79
2021/06/28 05:06:37;;;;;;;16.10;14.00;;;;;;;;;;5053536;28;38966;-78
2021/06/28 05:09:09;;;;;;;16.20;14.27;;;;;;;;;;5047775;28;37592;-78
2021/06/28 05:11:39;;;;;;;16.45;14.23;;;;;;;;;;5061345;28;39820;-78
2021/06/28 05:14:05;;;;;;;15.38;13.65;;;;;;;;;;5051056;28;38024;-78
2021/06/28 05:16:32;;;;;;;15.55;13.95;;;;;;;;;;5066593;28;36401;-78
2021/06/28 05:18:58;;;;;;;14.57;13.07;;;;;;;;;;5052860;28;39108;-78
2021/06/28 05:21:25;;;;;;;15.77;14.27;;;;;;;;;;5055667;28;39184;-78
2021/06/28 05:23:51;;;;;;;14.50;12.93;;;;;;;;;;5044337;28;40244;-78
2021/06/28 05:26:18;;;;;;;15.90;14.30;;;;;;;;;;5040748;28;39631;-78
2021/06/28 05:28:44;;;;;;;14.05;12.65;;;;;;;;;;5052251;28;35255;-78
2021/06/28 05:31:10;;;;;;;16.02;13.52;;;;;;;;;;5038204;28;39319;-77
2021/06/28 05:33:39;;;;;;;13.50;12.10;;;;;;;;;;5061846;28;38231;-78
2021/06/28 05:36:05;;;;;;;15.32;13.73;;;;;;;;;;5051137;28;38462;-78
2021/06/28 05:38:32;;;;;;;16.83;15.13;;;;;;;;;;5050819;28;37866;-77
2021/06/28 05:41:01;;;;;;;17.00;13.35;;;;;;;;;;5038800;28;37056;-78
2021/06/28 05:43:27;;;;;;;14.65;13.15;;;;;;;;;;5050827;28;49986;-78
2021/06/28 05:45:54;;;;;;;15.90;14.38;;;;;;;;;;5043004;28;39091;-78
2021/06/28 05:48:20;;;;;;;13.60;12.20;;;;;;;;;;5040078;28;37607;-78
2021/06/28 05:50:50;;;;;;;17.52;13.13;;;;;;;;;;5048251;28;38412;-78
2021/06/28 05:53:16;;;;;;;13.35;11.65;;;;;;;;;;5049269;28;37569;-78
2021/06/28 05:55:52;;;;;;;17.45;12.63;;;;;;;;;;5049227;28;38519;-79
2021/06/28 05:58:24;;;;;;;14.32;12.38;;;;;;;;;;5060632;28;38446;-78
2021/06/28 06:00:50;;;;;;;14.90;12.50;;;;;;;;;;5039808;28;40226;-79
2021/06/28 06:03:19;;;;;;;14.02;12.57;;;;;;;;;;5051823;28;39456;-78
2021/06/28 06:05:46;;;;;;;13.13;11.82;;;;;;;;;;5052943;28;37496;-77
2021/06/28 06:08:24;;;;;;;15.20;13.15;;;;;;;;;;5058296;28;37304;-78
2021/06/28 06:10:51;;;;;;;13.63;12.23;;;;;;;;;;5052832;28;39475;-77
2021/06/28 06:13:18;;;;;;;15.25;13.75;;;;;;;;;;5060352;28;38952;-77
2021/06/28 06:15:45;;;;;;;18.70;13.23;;;;;;;;;;5053556;28;39262;-77
2021/06/28 06:18:11;;;;;;;14.13;12.63;;;;;;;;;;5054037;28;38432;-77
2021/06/28 06:20:38;;;;;;;14.98;13.48;;;;;;;;;;5062416;28;40112;-77
2021/06/28 06:23:04;;;;;;;12.07;10.90;;;;;;;;;;5059487;28;41241;-78
2021/06/28 06:25:31;;;;;;;14.90;12.50;;;;;;;;;;5065191;28;38255;-77
2021/06/28 06:27:57;;;;;;;13.90;12.60;;;;;;;;;;5056873;28;38002;-79
2021/06/28 06:30:24;;;;;;;13.25;11.85;;;;;;;;;;5058564;28;39335;-76
2021/06/28 06:32:50;;;;;;;15.93;12.40;;;;;;;;;;5062600;28;39350;-76
2021/06/28 06:35:21;;;;;;;14.88;12.02;;;;;;;;;;5039563;28;37031;-77
2021/06/28 06:37:50;;;;;;;13.02;11.65;;;;;;;;;;5056478;28;37136;-78
2021/06/28 06:40:16;;;;;;;13.88;12.32;;;;;;;;;;5036834;28;42787;-78
2021/06/28 06:42:46;;;;;;;14.23;11.95;;;;;;;;;;5056591;28;37344;-78
2021/06/28 06:45:13;;;;;;;14.35;12.77;;;;;;;;;;5039544;28;38740;-78
2021/06/28 06:47:40;;;;;;;13.93;12.50;;;;;;;;;;5078028;27;37294;-77
2021/06/28 06:50:07;;;;;;;12.82;11.40;;;;;;;;;;5057537;28;37856;-77
2021/06/28 06:52:33;;;;;;;12.35;11.15;;;;;;;;;;5058726;28;37715;-77
2021/06/28 06:55:02;;;;;;;15.05;12.73;;;;;;;;;;5061965;28;37981;-77
2021/06/28 06:57:28;;;;;;;13.32;11.93;;;;;;;;;;5061733;28;37782;-77
2021/06/28 06:59:54;;;;;;;13.88;12.00;;;;;;;;;;5066293;28;39585;-77
2021/06/28 07:02:21;;;;;;;12.77;11.30;;;;;;;;;;5059727;28;38736;-78
2021/06/28 07:04:51;;;;;;;14.38;12.88;;;;;;;;;;5059691;28;39201;-77
2021/06/28 07:07:20;;;;;;;15.00;12.77;;;;;;;;;;5063099;28;36007;-77
2021/06/28 07:09:49;;;;;;;13.88;12.40;;;;;;;;;;5070225;28;39401;-77
2021/06/28 07:12:16;;;;;;;14.20;12.75;;;;;;;;;;5065654;28;38613;-77
2021/06/28 07:14:42;;;;;;;14.00;12.60;;;;;;;;;;5071126;28;37495;-79
2021/06/28 07:17:08;;;;;;;14.85;12.15;;;;;;;;;;5053676;28;36223;-78
2021/06/28 07:19:35;;;;;;;15.27;12.75;;;;;;;;;;5068344;28;38668;-78
2021/06/28 07:22:01;;;;;;;14.32;11.52;;;;;;;;;;5054268;28;38555;-77
2021/06/28 07:24:28;;;;;;;12.70;11.35;;;;;;;;;;5066178;28;48491;-79
2021/06/28 07:26:54;;;;;;;12.43;11.32;;;;;;;;;;5071141;28;37946;-79
2021/06/28 07:29:21;;;;;;;15.65;13.15;;;;;;;;;;5067507;28;38135;-80
2021/06/28 07:31:47;;;;;;;15.30;12.30;;;;;;;;;;5060378;28;37410;-78
2021/06/28 07:34:14;;;;;;;13.63;12.23;;;;;;;;;;5057082;28;37325;-77
2021/06/28 07:36:40;;;;;;;15.15;12.18;;;;;;;;;;5067482;28;37198;-78
2021/06/28 07:39:07;;;;;;;13.07;11.70;;;;;;;;;;5070881;28;38010;-79
2021/06/28 07:41:34;;;;;;;13.98;12.52;;;;;;;;;;5068633;28;38368;-78
2021/06/28 07:44:02;;;;;;;14.25;11.88;;;;;;;;;;5062822;28;37233;-79
2021/06/28 07:46:29;;;;;;;13.52;11.93;;;;;;;;;;5062663;28;49157;-77
2021/06/28 07:48:55;;;;;;;12.85;11.55;;;;;;;;;;5062227;28;38142;-79
2021/06/28 07:51:22;;;;;;;12.25;11.07;;;;;;;;;;5068566;28;38981;-77
2021/06/28 07:53:49;;;;;;;13.93;12.30;;;;;;;;;;5059284;28;39314;-77
2021/06/28 07:56:17;;;;;;;13.60;12.20;;;;;;;;;;5054398;28;36221;-77
2021/06/28 07:58:44;;;;;;;13.32;12.00;;;;;;;;;;5057061;28;39238;-78
2021/06/28 08:01:11;;;;;;;14.55;12.35;;;;;;;;;;5058857;28;38602;-78
2021/06/28 08:03:45;;;;;;;13.95;11.95;;;;;;;;;;5059522;28;38944;-77
2021/06/28 08:06:12;;;;;;;14.05;12.65;;;;;;;;;;5058780;28;33581;-77
2021/06/28 08:08:38;;;;;;;12.82;11.30;;;;;;;;;;5051268;28;39787;-78
2021/06/28 08:11:07;;;;;;;13.32;11.95;;;;;;;;;;5051568;28;37353;-78
2021/06/28 08:13:34;;;;;;;12.57;11.30;;;;;;;;;;5096197;22;37160;-78
2021/06/28 08:16:01;;;;;;;12.93;11.63;;;;;;;;;;5087021;28;37675;-79
2021/06/28 08:18:27;;;;;;;15.48;12.10;;;;;;;;;;5090124;28;46927;-79
2021/06/28 08:20:54;;;;;;;14.25;11.50;;;;;;;;;;5092924;27;39993;-79
2021/06/28 08:23:20;;;;;;;14.35;12.73;;;;;;;;;;5091673;27;38153;-79
2021/06/28 08:25:47;;;;;;;12.25;10.75;;;;;;;;;;5090044;28;37175;-79
2021/06/28 08:28:14;;;;;;;11.63;10.15;;;;;;;;;;5087746;28;39037;-79
2021/06/28 08:30:40;;;;;;;10.60;9.50;;;;;;;;;;5085276;28;39598;-79
2021/06/28 08:33:07;;;;;;;12.38;11.07;;;;;;;;;;5099400;27;37483;-80
2021/06/28 08:35:33;;;;;;;12.93;10.73;;;;;;;;;;5092411;28;37304;-79
2021/06/28 08:38:01;;;;;;;12.38;11.07;;;;;;;;;;5096502;28;39756;-80
2021/06/28 08:40:27;;;;;;;11.00;8.43;;;;;;;;;;5090667;27;38948;-79
2021/06/28 08:42:53;;;;;;;9.32;8.40;;;;;;;;;;5087492;28;39062;-79
2021/06/28 08:45:22;;;;;;;13.13;10.65;;;;;;;;;;5091907;27;36174;-78
2021/06/28 08:47:48;;;;;;;10.63;9.57;;;;;;;;;;5090270;28;40283;-78
2021/06/28 08:50:15;;;;;;;12.32;10.90;;;;;;;;;;5082016;28;39579;-78
2021/06/28 08:52:43;;;;;;;13.63;10.65;;;;;;;;;;5085241;28;37665;-79
2021/06/28 08:55:10;;;;;;;12.52;11.20;;;;;;;;;;5087947;27;37479;-78
2021/06/28 08:57:37;;;;;;;13.32;11.93;;;;;;;;;;5084401;28;39775;-78
2021/06/28 09:00:09;;;;;;;12.00;9.85;;;;;;;;;;5087206;28;38289;-78
2021/06/28 09:02:35;;;;;;;13.32;10.85;;;;;;;;;;5088380;28;47333;-78
2021/06/28 09:05:05;;;;;;;10.80;9.50;;;;;;;;;;5091885;28;36695;-78
2021/06/28 09:07:31;;;;;;;11.23;9.93;;;;;;;;;;5086881;28;47155;-78
2021/06/28 09:09:57;;;;;;;9.35;8.38;;;;;;;;;;5083922;28;39151;-77
2021/06/28 09:12:24;;;;;;;13.23;11.10;;;;;;;;;;5086655;27;39263;-77
2021/06/28 09:14:55;;;;;;;9.48;8.55;;;;;;;;;;5092110;28;35766;-78
2021/06/28 09:17:28;;;;;;;10.15;9.13;;;;;;;;;;5087206;27;39122;-78
2021/06/28 09:20:11;;;;;;;10.70;9.63;;;;;;;;;;5086616;28;39353;-77
2021/06/28 09:22:37;;;;;;;10.68;9.60;;;;;;;;;;5085505;27;48758;-78
2021/06/28 09:25:06;;;;;;;10.30;9.20;;;;;;;;;;5083552;28;37124;-78
2021/06/28 09:27:40;;;;;;;13.32;9.52;;;;;;;;;;5083052;28;48848;-78
2021/06/28 09:30:15;;;;;;;13.02;10.85;;;;;;;;;;5079351;27;39302;-78
2021/06/28 09:32:51;;;;;;;10.63;9.52;;;;;;;;;;5084446;28;39345;-78
2021/06/28 09:35:28;;;;;;;9.70;8.70;;;;;;;;;;5086604;27;37924;-77
2021/06/28 09:37:54;;;;;;;13.05;11.05;;;;;;;;;;5084523;28;40726;-77
2021/06/28 09:40:25;;;;;;;14.52;10.45;;;;;;;;;;5078324;27;38817;-77
2021/06/28 09:42:52;;;;;;;10.50;9.40;;;;;;;;;;5090017;28;37381;-77
2021/06/28 09:45:21;;;;;;;13.57;10.18;;;;;;;;;;5083890;27;37950;-77
2021/06/28 09:47:51;;;;;;;11.00;9.90;;;;;;;;;;5084830;27;39261;-77
2021/06/28 09:50:19;;;;;;;10.68;9.57;;;;;;;;;;5083169;27;38791;-77
2021/06/28 09:52:51;;;;;;;10.90;9.80;;;;;;;;;;5084824;27;38872;-77
2021/06/28 09:55:20;;;;;;;11.55;10.35;;;;;;;;;;5081946;27;38370;-77
2021/06/28 09:58:23;;;;;;;11.85;10.07;;;;;;;;;;5083456;28;40249;-77
2021/06/28 10:00:50;;;;;;;11.98;10.32;;;;;;;;;;5002264;28;47071;-77
2021/06/28 10:03:27;;;;;;;10.32;9.32;;;;;;;;;;5065283;28;39037;-77
2021/06/28 10:06:10;;;;;;;13.55;11.10;;;;;;;;;;5083407;27;37155;-77
2021/06/28 10:08:38;;;;;;;9.60;8.60;;;;;;;;;;5085231;28;47835;-76
2021/06/28 10:11:20;;;;;;;9.07;8.18;;;;;;;;;;5085546;27;38798;-77
2021/06/28 10:13:51;;;;;;;10.30;9.25;;;;;;;;;;5082044;28;38542;-77
2021/06/28 10:16:19;;;;;;;9.63;8.73;;;;;;;;;;5084495;27;36222;-77
2021/06/28 10:18:46;;;;;;;8.27;7.47;;;;;;;;;;5082004;28;38770;-77
2021/06/28 10:21:13;;;;;;;7.40;6.68;;;;;;;;;;5082321;27;37428;-76
2021/06/28 10:23:39;;;;;;;8.90;7.78;;;;;;;;;;5088814;27;39292;-77
2021/06/28 10:26:06;;;;;;;8.88;8.07;;;;;;;;;;5087502;27;36306;-77
2021/06/28 10:28:37;;;;;;;10.55;9.43;;;;;;;;;;5084627;28;38986;-77
2021/06/28 10:31:04;;;;;;;9.50;8.60;;;;;;;;;;5087321;28;37313;-77
2021/06/28 10:33:31;;;;;;;10.13;9.13;;;;;;;;;;5083864;28;37244;-77
2021/06/28 10:36:02;;;;;;;10.90;9.80;;;;;;;;;;5087436;27;38001;-76
2021/06/28 10:38:49;;;;;;;9.82;8.52;;;;;;;;;;5085905;28;49223;-76
2021/06/28 10:41:34;;;;;;;9.63;8.65;;;;;;;;;;5085137;27;38476;-77
2021/06/28 10:44:01;;;;;;;9.40;8.50;;;;;;;;;;5084714;28;38309;-77
2021/06/28 10:46:33;;;;;;;9.90;8.80;;;;;;;;;;5082825;28;48911;-77
2021/06/28 10:48:59;;;;;;;11.88;9.75;;;;;;;;;;5071965;28;41437;-77
2021/06/28 10:51:45;;;;;;;10.25;9.20;;;;;;;;;;5082860;28;37711;-77
2021/06/28 10:54:16;;;;;;;10.27;9.27;;;;;;;;;;5088032;27;37294;-77
2021/06/28 10:56:45;;;;;;;8.95;7.88;;;;;;;;;;5089793;27;36872;-77
2021/06/28 10:59:14;;;;;;;8.73;7.93;;;;;;;;;;5088312;27;40042;-77
2021/06/28 11:01:47;;;;;;;7.55;6.85;;;;;;;;;;5084565;28;37708;-77
2021/06/28 11:04:14;;;;;;;8.07;7.13;;;;;;;;;;5083499;28;39493;-78
2021/06/28 11:07:02;;;;;;;8.68;7.78;;;;;;;;;;5088162;28;36708;-77
2021/06/28 11:09:37;;;;;;;9.10;8.27;;;;;;;;;;5085909;28;48205;-77
2021/06/28 11:12:05;;;;;;;9.52;8.60;;;;;;;;;;5078926;27;39295;-77
2021/06/28 11:14:31;;;;;;;10.30;9.20;;;;;;;;;;5088839;27;38944;-77
2021/06/28 11:16:59;;;;;;;8.55;7.75;;;;;;;;;;5088896;28;37871;-78
2021/06/28 11:19:45;;;;;;;8.90;8.00;;;;;;;;;;5083122;27;37890;-77
2021/06/28 11:22:30;;;;;;;9.05;8.15;;;;;;;;;;5082135;27;38941;-78
2021/06/28 11:25:09;;;;;;;10.48;9.48;;;;;;;;;;5087093;28;39138;-77
2021/06/28 11:27:36;;;;;;;9.13;8.13;;;;;;;;;;5082446;28;47315;-77
2021/06/28 11:30:17;;;;;;;10.43;9.35;;;;;;;;;;5084996;28;38713;-77
2021/06/28 11:33:08;;;;;;;9.25;8.35;;;;;;;;;;5083374;27;47247;-77
2021/06/28 11:35:42;;;;;;;9.00;8.10;;;;;;;;;;5074224;28;49639;-78
2021/06/28 11:38:12;;;;;;;8.07;7.28;;;;;;;;;;5079874;28;37678;-78
2021/06/28 11:40:40;;;;;;;10.05;9.05;;;;;;;;;;5076734;27;39386;-78
2021/06/28 11:43:06;;;;;;;11.43;9.93;;;;;;;;;;5084814;27;38711;-78
2021/06/28 11:45:54;;;;;;;11.32;9.88;;;;;;;;;;5077164;28;37587;-78
2021/06/28 11:48:39;;;;;;;12.45;11.15;;;;;;;;;;5086043;27;36794;-78
2021/06/28 11:51:12;;;;;;;12.30;9.57;;;;;;;;;;5088924;28;39259;-78
2021/06/28 11:53:40;;;;;;;10.25;9.15;;;;;;;;;;5089047;28;37807;-78
2021/06/28 11:56:18;;;;;;;11.15;9.50;;;;;;;;;;5079331;28;38996;-78
2021/06/28 11:58:51;;;;;;;12.05;10.75;;;;;;;;;;5086524;27;36808;-77
2021/06/28 12:01:18;;;;;;;11.10;10.00;;;;;;;;;;5102062;27;38917;-78
2021/06/28 12:03:44;;;;;;;13.68;12.35;;;;;;;;;;5079083;27;38243;-78
2021/06/28 12:06:11;;;;;;;9.95;8.95;;;;;;;;;;5079068;28;39112;-78
2021/06/28 12:08:38;;;;;;;11.85;10.63;;;;;;;;;;5081238;28;36806;-78
2021/06/28 12:11:05;;;;;;;16.95;15.20;;;;;;;;;;5071245;27;39825;-78
2021/06/28 12:13:36;;;;;;;12.40;11.10;;;;;;;;;;5084848;27;39717;-78
2021/06/28 12:16:16;;;;;;;15.15;13.15;;;;;;;;;;5085779;27;38222;-78
2021/06/28 12:18:42;;;;;;;15.10;13.50;;;;;;;;;;5079969;28;38209;-78
2021/06/28 12:21:09;;;;;;;15.70;12.35;;;;;;;;;;5083481;27;39797;-79
2021/06/28 12:23:35;;;;;;;14.55;13.15;;;;;;;;;;5092238;28;37487;-79
2021/06/28 12:26:12;;;;;;;15.65;13.75;;;;;;;;;;5091003;27;38310;-78
2021/06/28 12:28:38;;;;;;;16.23;14.05;;;;;;;;;;5093447;28;38692;-78
2021/06/28 12:31:17;;;;;;;16.23;13.55;;;;;;;;;;5089649;28;39795;-77
2021/06/28 12:33:44;;;;;;;15.60;14.00;;;;;;;;;;5080449;28;37079;-77
2021/06/28 12:36:10;;;;;;;13.20;11.80;;;;;;;;;;5090945;27;37775;-80
2021/06/28 12:38:37;;;;;;;17.23;15.50;;;;;;;;;;5121521;27;39649;-79
2021/06/28 12:41:04;;;;;;;17.15;15.45;;;;;;;;;;5099810;28;39752;-78
2021/06/28 12:43:30;;;;;;;19.25;17.25;;;;;;;;;;5104869;28;37877;-78
2021/06/28 12:45:59;;;;;;;17.40;15.50;;;;;;;;;;5105059;27;38720;-79
2021/06/28 12:48:26;;;;;;;16.90;15.20;;;;;;;;;;5104123;28;36000;-81
2021/06/28 12:50:54;;;;;;;16.25;14.65;;;;;;;;;;5775569;22;39511;-80
2021/06/28 12:53:20;;;;;;;18.48;16.15;;;;;;;;;;5101608;28;38556;-79
2021/06/28 12:55:48;;;;;;;22.13;19.70;;;;;;;;;;5103132;27;39509;-80
2021/06/28 12:58:15;;;;;;;25.88;22.67;;;;;;;;;;5114358;27;36460;-80
2021/06/28 13:00:46;;;;;;;28.58;23.60;;;;;;;;;;5113871;27;37623;-79
2021/06/28 13:03:14;;;;;;;28.75;24.08;;;;;;;;;;5116769;27;39386;-79
2021/06/28 13:05:40;;;;;;;28.10;24.95;;;;;;;;;;5099963;28;37293;-79
2021/06/28 13:08:10;;;;;;;28.30;25.38;;;;;;;;;;5090529;28;36245;-79
2021/06/28 13:10:37;;;;;;;28.90;26.00;;;;;;;;;;5117421;28;40016;-80
2021/06/28 13:13:20;;;;;;;30.83;27.55;;;;;;;;;;5101218;28;37440;-79
2021/06/28 13:16:07;;;;;;;30.50;27.33;;;;;;;;;;5127149;27;38328;-80
2021/06/28 13:18:34;;;;;;;28.83;24.98;;;;;;;;;;5134306;27;50164;-80
2021/06/28 13:21:03;;;;;;;34.95;31.17;;;;;;;;;;5104029;28;37760;-80
2021/06/28 13:23:30;;;;;;;35.65;30.52;;;;;;;;;;5128032;27;48850;-80
2021/06/28 13:25:56;;;;;;;36.90;33.03;;;;;;;;;;5107843;28;37963;-80
2021/06/28 13:28:22;;;;;;;37.78;33.72;;;;;;;;;;5121983;27;37333;-79
2021/06/28 13:30:59;;;;;;;37.03;32.17;;;;;;;;;;5110171;27;39072;-79
2021/06/28 13:33:25;;;;;;;38.70;34.45;;;;;;;;;;5071715;28;38586;-79
2021/06/28 13:35:52;;;;;;;43.00;38.22;;;;;;;;;;5076820;28;36811;-78
2021/06/28 13:38:19;;;;;;;41.28;36.78;;;;;;;;;;5107147;27;38012;-79
2021/06/28 13:40:55;;;;;;;42.55;38.00;;;;;;;;;;5082405;28;37890;-79
2021/06/28 13:43:22;;;;;;;47.72;40.50;;;;;;;;;;5076693;28;38561;-79
2021/06/28 13:45:49;;;;;;;48.17;39.85;;;;;;;;;;5107488;27;38140;-80
2021/06/28 13:48:16;;;;;;;39.42;35.13;;;;;;;;;;5115981;27;38109;-80
2021/06/28 13:50:44;;;;;;;35.35;31.65;;;;;;;;;;5114994;27;39073;-79
2021/06/28 13:53:14;;;;;;;32.97;25.60;;;;;;;;;;5109105;27;38862;-79
2021/06/28 13:55:42;;;;;;;29.20;26.15;;;;;;;;;;5100724;27;39921;-79
2021/06/28 13:58:10;;;;;;;22.63;20.23;;;;;;;;;;5098858;27;37629;-80
2021/06/28 14:00:40;;;;;;;16.50;14.82;;;;;;;;;;5083903;28;39506;-80
2021/06/28 14:03:07;;;;;;;10.95;9.82;;;;;;;;;;5113185;27;38471;-79
2021/06/28 14:05:34;;;;;;;15.63;13.27;;;;;;;;;;5109963;27;38787;-80
2021/06/28 14:08:00;;;;;;;17.20;15.40;;;;;;;;;;5101439;27;37587;-79
2021/06/28 14:10:27;;;;;;;16.50;14.07;;;;;;;;;;5093705;27;39374;-78
2021/06/28 14:12:53;;;;;;;21.27;18.98;;;;;;;;;;5116610;27;39415;-79
2021/06/28 14:15:20;;;;;;;23.35;20.85;;;;;;;;;;5111771;27;39362;-80
2021/06/28 14:17:46;;;;;;;26.08;23.02;;;;;;;;;;5110130;27;36036;-80
2021/06/28 14:20:17;;;;;;;24.77;22.20;;;;;;;;;;5089875;27;39132;-78
2021/06/28 14:22:44;;;;;;;25.15;22.55;;;;;;;;;;5114585;28;38181;-79
2021/06/28 14:25:11;;;;;;;27.15;24.35;;;;;;;;;;5087393;27;37267;-79
2021/06/28 14:27:38;;;;;;;29.55;26.40;;;;;;;;;;5090265;27;37059;-80
2021/06/28 14:30:05;;;;;;;24.75;22.15;;;;;;;;;;5088855;28;38187;-80